Time;durP1;ratioP1;P1;durP2;ratioP2;P2;SDS_P1;SDS_P2;PMS_P1;PMS_P2;Temp;Humidity;BMP_temperature;BMP_pressure;BME280_temperature;BME280_humidity;BME280_pressure;Samples;Min_cycle;Max_cycle;Signal;HPM_P1;HPM_P2
2022/07/11 00:02:12;;;;;;;10.05;4.65;;;19.10;73.80;;;;;;5017942;28;20192;-90
2022/07/11 00:04:38;;;;;;;6.00;4.80;;;19.20;73.20;;;;;;5018945;28;20538;-91
2022/07/11 00:07:05;;;;;;;6.00;4.20;;;19.20;73.20;;;;;;5018069;28;20191;-90
2022/07/11 00:09:31;;;;;;;7.13;5.45;;;19.20;73.60;;;;;;5018555;28;20237;-91
2022/07/11 00:11:57;;;;;;;5.57;4.70;;;19.10;73.90;;;;;;5019635;28;20269;-91
2022/07/11 00:14:23;;;;;;;6.78;4.40;;;19.10;73.90;;;;;;5020100;28;20417;-90
2022/07/11 00:16:50;;;;;;;7.70;5.63;;;19.10;74.20;;;;;;5031269;28;20206;-90
2022/07/11 00:19:16;;;;;;;5.55;5.05;;;19.10;74.40;;;;;;5034019;28;20471;-90
2022/07/11 00:21:42;;;;;;;9.07;5.60;;;19.10;74.50;;;;;;5033612;28;20179;-90
2022/07/11 00:24:08;;;;;;;10.27;5.55;;;19.10;74.60;;;;;;5021821;28;20426;-91
2022/07/11 00:26:36;;;;;;;9.03;5.37;;;19.00;74.60;;;;;;5015671;28;20203;-90
2022/07/11 00:29:01;;;;;;;8.25;6.30;;;19.00;74.70;;;;;;5015631;28;20437;-90
2022/07/11 00:31:27;;;;;;;6.90;5.40;;;19.00;75.80;;;;;;5015927;28;20206;-90
2022/07/11 00:33:54;;;;;;;11.85;6.03;;;19.00;75.10;;;;;;5014890;28;20486;-90
2022/07/11 00:36:19;;;;;;;13.70;7.47;;;19.00;75.10;;;;;;5014408;28;20198;-91
2022/07/11 00:38:45;;;;;;;9.10;6.27;;;19.00;75.10;;;;;;5014875;28;20264;-90
2022/07/11 00:41:12;;;;;;;8.45;6.28;;;19.00;75.20;;;;;;5015553;28;20186;-91
2022/07/11 00:43:39;;;;;;;10.38;7.90;;;19.00;74.70;;;;;;5015601;28;20209;-91
2022/07/11 00:46:07;;;;;;;10.10;6.35;;;19.00;74.80;;;;;;5015201;28;20291;-90
2022/07/11 00:48:35;;;;;;;11.27;7.38;;;19.00;75.20;;;;;;5015569;28;20183;-90
2022/07/11 00:51:03;;;;;;;11.68;6.95;;;19.00;75.40;;;;;;5017414;28;20183;-90
2022/07/11 00:53:30;;;;;;;11.23;8.60;;;19.00;75.40;;;;;;5020229;28;20186;-90
2022/07/11 00:55:56;;;;;;;10.50;6.72;;;19.00;75.40;;;;;;5023484;28;20182;-91
2022/07/11 00:58:23;;;;;;;15.90;8.80;;;19.00;75.40;;;;;;5038993;28;20260;-90
2022/07/11 01:00:49;;;;;;;10.85;8.73;;;19.00;75.30;;;;;;5024943;28;20178;-90
2022/07/11 01:03:15;;;;;;;11.45;9.35;;;19.10;75.70;;;;;;5023481;28;20178;-90
2022/07/11 01:05:41;;;;;;;9.63;8.15;;;19.00;76.00;;;;;;5021537;28;20193;-91
2022/07/11 01:08:07;;;;;;;11.60;9.30;;;18.90;76.60;;;;;;5022227;28;20265;-90
2022/07/11 01:10:35;;;;;;;11.57;8.90;;;18.90;77.00;;;;;;5022571;28;20182;-91
2022/07/11 01:13:01;;;;;;;14.77;10.30;;;18.80;77.20;;;;;;5023764;28;20475;-90
2022/07/11 01:15:27;;;;;;;15.70;11.90;;;18.80;77.50;;;;;;5031890;28;20184;-91
2022/07/11 01:17:53;;;;;;;16.73;11.73;;;18.80;77.40;;;;;;5037794;28;20690;-90
2022/07/11 01:20:24;;;;;;;15.10;11.13;;;18.90;77.20;;;;;;5025327;28;20437;-91
2022/07/11 01:22:56;;;;;;;13.50;12.10;;;18.90;77.20;;;;;;5003139;28;20183;-90
2022/07/11 01:25:32;;;;;;;15.52;11.48;;;18.90;77.30;;;;;;5018757;28;20196;-91
2022/07/11 01:27:59;;;;;;;13.15;11.48;;;18.80;77.90;;;;;;5018960;28;20198;-90
2022/07/11 01:30:26;;;;;;;13.23;10.98;;;18.80;78.50;;;;;;5021804;28;20206;-90
2022/07/11 01:32:56;;;;;;;18.85;13.55;;;18.80;78.50;;;;;;5033230;28;20201;-90
2022/07/11 01:35:22;;;;;;;14.20;11.38;;;18.80;78.50;;;;;;5019572;28;20182;-90
2022/07/11 01:37:49;;;;;;;13.10;10.68;;;18.80;78.20;;;;;;5015335;28;20203;-91
2022/07/11 01:40:15;;;;;;;16.08;11.52;;;18.80;78.40;;;;;;5016128;28;20264;-90
2022/07/11 01:42:41;;;;;;;15.65;11.55;;;18.70;79.00;;;;;;5018777;28;20223;-91
2022/07/11 01:45:08;;;;;;;14.70;11.73;;;18.70;79.60;;;;;;5015450;28;20229;-92
2022/07/11 01:47:34;;;;;;;14.90;12.50;;;18.60;79.90;;;;;;5015610;28;20232;-89
2022/07/11 01:50:08;;;;;;;16.13;12.87;;;18.60;80.40;;;;;;5015445;28;20269;-89
2022/07/11 01:52:33;;;;;;;17.20;12.52;;;18.60;80.60;;;;;;4999857;28;20189;-89
2022/07/11 01:54:59;;;;;;;20.03;11.77;;;18.60;80.60;;;;;;5016248;28;20190;-90
2022/07/11 01:57:25;;;;;;;15.13;11.80;;;18.60;80.40;;;;;;5014789;28;20211;-90
2022/07/11 01:59:51;;;;;;;13.50;11.87;;;18.70;80.20;;;;;;5015459;28;20678;-88
2022/07/11 02:02:17;;;;;;;25.02;13.63;;;18.60;80.00;;;;;;5014307;28;20410;-89
2022/07/11 02:04:43;;;;;;;19.60;14.63;;;18.60;80.30;;;;;;5015023;28;20240;-89
2022/07/11 02:07:11;;;;;;;25.67;13.40;;;18.60;80.70;;;;;;5015109;28;20309;-89
2022/07/11 02:09:39;;;;;;;18.85;15.95;;;18.50;81.10;;;;;;5014964;28;20445;-91
2022/07/11 02:12:06;;;;;;;18.65;14.40;;;18.40;81.40;;;;;;5014594;28;20217;-90
2022/07/11 02:14:31;;;;;;;17.55;14.50;;;18.40;81.50;;;;;;5014284;28;20567;-90
2022/07/11 02:16:58;;;;;;;21.47;14.83;;;18.40;81.70;;;;;;5014482;28;20198;-90
2022/07/11 02:19:23;;;;;;;22.13;16.77;;;18.40;81.70;;;;;;5014021;28;21027;-90
2022/07/11 02:21:49;;;;;;;22.50;16.40;;;18.30;81.90;;;;;;5014247;28;20420;-90
2022/07/11 02:24:15;;;;;;;19.83;14.83;;;18.30;82.10;;;;;;5015644;28;20183;-90
2022/07/11 02:26:40;;;;;;;23.83;16.20;;;18.20;82.30;;;;;;5014888;28;20191;-90
2022/07/11 02:29:06;;;;;;;18.93;15.20;;;18.30;82.40;;;;;;5015266;28;20501;-91
2022/07/11 02:31:32;;;;;;;20.53;16.80;;;18.30;82.30;;;;;;5015729;28;20573;-90
2022/07/11 02:33:57;;;;;;;21.43;15.90;;;18.30;82.40;;;;;;5013840;28;20209;-90
2022/07/11 02:36:23;;;;;;;19.67;15.00;;;18.30;82.50;;;;;;5013856;28;20704;-90
2022/07/11 02:38:49;;;;;;;21.43;16.20;;;18.40;82.50;;;;;;5013337;28;20218;-91
2022/07/11 02:41:14;;;;;;;22.70;16.00;;;18.40;82.00;;;;;;5014170;28;20175;-90
2022/07/11 02:43:40;;;;;;;23.57;19.07;;;18.40;81.80;;;;;;5019757;28;20222;-92
2022/07/11 02:46:06;;;;;;;26.10;17.30;;;18.40;82.00;;;;;;5016900;28;20202;-92
2022/07/11 02:48:32;;;;;;;27.47;19.37;;;18.40;82.10;;;;;;5020640;28;20170;-91
2022/07/11 02:50:58;;;;;;;29.42;18.20;;;18.40;82.30;;;;;;5037958;28;20253;-91
2022/07/11 02:53:24;;;;;;;31.27;19.00;;;18.30;82.40;;;;;;5022806;28;20189;-90
2022/07/11 02:55:50;;;;;;;26.70;17.80;;;18.30;82.90;;;;;;5017084;28;20430;-91
2022/07/11 02:58:16;;;;;;;22.87;17.50;;;18.20;83.10;;;;;;5016365;28;20455;-89
2022/07/11 03:00:41;;;;;;;24.40;18.67;;;18.20;83.10;;;;;;5019656;28;20453;-88
2022/07/11 03:03:07;;;;;;;26.50;18.50;;;18.30;82.70;;;;;;5018729;28;20771;-88
2022/07/11 03:05:33;;;;;;;22.83;17.73;;;18.30;82.30;;;;;;5017174;28;20182;-90
2022/07/11 03:07:59;;;;;;;27.20;21.40;;;18.40;81.70;;;;;;5018141;28;20202;-91
2022/07/11 03:10:25;;;;;;;26.80;19.65;;;18.30;81.60;;;;;;5029416;28;20423;-90
2022/07/11 03:12:51;;;;;;;28.53;19.37;;;18.20;82.10;;;;;;5021744;28;20190;-90
2022/07/11 03:15:16;;;;;;;23.90;17.97;;;18.20;82.70;;;;;;5015642;28;20202;-90
2022/07/11 03:17:42;;;;;;;24.53;17.93;;;18.10;83.10;;;;;;5015642;28;20202;-90
2022/07/11 03:20:09;;;;;;;23.53;17.50;;;18.10;82.90;;;;;;5016932;28;20238;-90
2022/07/11 03:22:35;;;;;;;25.65;17.80;;;18.10;82.70;;;;;;5016623;28;20174;-90
2022/07/11 03:25:03;;;;;;;27.33;17.80;;;18.10;82.70;;;;;;5015853;28;20217;-90
2022/07/11 03:27:29;;;;;;;20.90;15.48;;;18.20;82.70;;;;;;5016153;28;20511;-90
2022/07/11 03:29:55;;;;;;;21.87;15.13;;;18.10;82.90;;;;;;5016509;28;20651;-91
2022/07/11 03:32:22;;;;;;;22.73;16.50;;;18.10;83.40;;;;;;5016366;28;20422;-90
2022/07/11 03:37:33;;;;;;;16.55;13.05;;;18.10;83.50;;;;;;5015924;28;20564;-89
2022/07/11 03:39:59;;;;;;;20.57;13.67;;;18.10;83.40;;;;;;5016357;28;20214;-90
2022/07/11 03:42:26;;;;;;;16.63;13.20;;;18.10;83.60;;;;;;5017041;28;20413;-90
2022/07/11 03:44:52;;;;;;;24.77;15.57;;;18.10;83.10;;;;;;5016816;28;20178;-90
2022/07/11 03:47:18;;;;;;;24.50;16.07;;;18.10;83.10;;;;;;5015087;28;20198;-92
2022/07/11 03:49:44;;;;;;;17.95;14.43;;;18.10;83.40;;;;;;5015596;28;20205;-89
2022/07/11 03:52:09;;;;;;;19.23;14.10;;;18.10;83.50;;;;;;5015269;28;20190;-89
2022/07/11 03:54:35;;;;;;;21.20;15.40;;;18.10;83.50;;;;;;5015710;28;20429;-89
2022/07/11 03:57:02;;;;;;;17.70;13.67;;;18.10;83.40;;;;;;5015752;28;20222;-90
2022/07/11 03:59:28;;;;;;;26.85;14.77;;;18.10;83.10;;;;;;5018599;28;20202;-89
2022/07/11 04:01:53;;;;;;;15.10;12.73;;;18.10;83.60;;;;;;5017639;28;20174;-88
2022/07/11 04:04:19;;;;;;;19.50;15.57;;;18.00;83.90;;;;;;5016641;28;20225;-89
2022/07/11 04:06:45;;;;;;;16.63;14.43;;;18.10;83.80;;;;;;5018887;28;20292;-89
2022/07/11 04:09:11;;;;;;;24.27;14.70;;;18.10;83.50;;;;;;5018084;28;20583;-90
2022/07/11 04:11:36;;;;;;;17.77;13.97;;;18.00;83.80;;;;;;5018543;28;20178;-88
2022/07/11 04:14:02;;;;;;;14.80;11.77;;;18.00;84.20;;;;;;5015807;28;20178;-89
2022/07/11 04:16:28;;;;;;;20.70;14.03;;;18.00;84.20;;;;;;5016830;28;20433;-89
2022/07/11 04:18:54;;;;;;;22.53;14.50;;;18.10;84.30;;;;;;5017497;28;20256;-92
2022/07/11 04:21:19;;;;;;;21.60;15.33;;;18.10;84.20;;;;;;5017833;28;20552;-90
2022/07/11 04:23:45;;;;;;;27.00;16.20;;;18.20;83.90;;;;;;5015819;28;20174;-91
2022/07/11 04:26:11;;;;;;;23.30;17.07;;;18.30;83.20;;;;;;5017347;28;20237;-91
2022/07/11 04:28:37;;;;;;;20.63;16.20;;;18.30;82.70;;;;;;5019498;28;20248;-90
2022/07/11 04:31:02;;;;;;;18.50;14.90;;;18.30;82.70;;;;;;5018912;28;20550;-90
2022/07/11 04:33:28;;;;;;;20.90;14.33;;;18.20;83.10;;;;;;5017955;28;20182;-90
2022/07/11 04:35:54;;;;;;;17.23;14.73;;;18.20;83.60;;;;;;5019435;28;20417;-91
2022/07/11 04:38:21;;;;;;;20.35;15.20;;;18.10;84.00;;;;;;5001885;28;20181;-91
2022/07/11 04:40:48;;;;;;;22.15;13.68;;;18.20;84.00;;;;;;5018560;28;20206;-87
2022/07/11 04:43:14;;;;;;;24.83;14.90;;;18.10;84.00;;;;;;5038645;28;20309;-90
2022/07/11 04:45:40;;;;;;;21.38;15.02;;;18.10;84.20;;;;;;5030262;28;20198;-91
2022/07/11 04:48:06;;;;;;;18.30;14.90;;;18.20;84.20;;;;;;5007768;28;20265;-90
2022/07/11 04:50:53;;;;;;;25.03;14.93;;;18.30;84.00;;;;;;5005848;28;20419;-89
2022/07/11 04:53:19;;;;;;;27.33;16.92;;;18.50;83.00;;;;;;4999626;28;20172;-90
2022/07/11 04:55:45;;;;;;;19.50;12.10;;;18.60;82.20;;;;;;5000404;28;20183;-90
2022/07/11 04:58:11;;;;;;;19.33;14.90;;;18.60;81.90;;;;;;5000309;28;20198;-90
2022/07/11 05:00:37;;;;;;;21.73;13.65;;;18.60;82.10;;;;;;5000494;28;20179;-89
2022/07/11 05:03:03;;;;;;;17.10;13.03;;;18.70;81.30;;;;;;4999881;28;20593;-90
2022/07/11 05:05:29;;;;;;;17.50;11.95;;;18.70;81.10;;;;;;4999645;28;20186;-90
2022/07/11 05:07:54;;;;;;;15.38;12.27;;;18.60;81.20;;;;;;5000112;28;20209;-90
2022/07/11 05:10:20;;;;;;;17.43;12.93;;;18.60;81.10;;;;;;5004463;28;20245;-90
2022/07/11 05:12:46;;;;;;;28.70;14.17;;;18.50;81.20;;;;;;5018827;28;20178;-90
2022/07/11 05:15:11;;;;;;;14.13;11.07;;;18.60;80.80;;;;;;5018539;28;20647;-91
2022/07/11 05:17:37;;;;;;;17.30;11.53;;;18.70;80.20;;;;;;5004424;28;20204;-91
2022/07/11 05:20:04;;;;;;;15.93;10.93;;;18.70;80.50;;;;;;5016752;28;20210;-90
2022/07/11 05:22:30;;;;;;;17.35;11.70;;;18.70;80.60;;;;;;5001321;28;20206;-90
2022/07/11 05:24:56;;;;;;;18.27;11.07;;;18.80;80.40;;;;;;5017157;28;20667;-90
2022/07/11 05:27:21;;;;;;;10.67;8.23;;;19.30;80.00;;;;;;5017173;28;20194;-90
2022/07/11 05:29:47;;;;;;;11.60;8.83;;;20.30;75.30;;;;;;5020194;28;20186;-90
2022/07/11 05:32:13;;;;;;;10.73;8.93;;;21.00;70.90;;;;;;5035192;28;20186;-91
2022/07/11 05:34:39;;;;;;;11.77;9.40;;;21.90;66.80;;;;;;5036399;28;20231;-91
2022/07/11 05:37:05;;;;;;;9.97;8.97;;;22.60;64.20;;;;;;5036582;28;20198;-90
2022/07/11 05:39:34;;;;;;;11.63;9.10;;;22.70;62.20;;;;;;5019339;28;20461;-91
2022/07/11 05:41:59;;;;;;;8.00;6.90;;;22.80;62.40;;;;;;5017495;28;20445;-89
2022/07/11 05:44:25;;;;;;;9.00;7.63;;;23.40;61.00;;;;;;5017219;28;20484;-89
2022/07/11 05:46:51;;;;;;;9.37;7.90;;;24.20;58.80;;;;;;5016606;28;20202;-89
2022/07/11 05:49:17;;;;;;;9.00;7.80;;;24.70;56.40;;;;;;5016633;28;20193;-90
2022/07/11 05:51:43;;;;;;;9.10;7.73;;;24.70;55.10;;;;;;5016987;28;20692;-89
2022/07/11 05:54:09;;;;;;;8.80;7.03;;;24.20;56.10;;;;;;5017799;28;20174;-91
2022/07/11 05:56:35;;;;;;;6.63;4.53;;;24.00;56.70;;;;;;4999593;28;20453;-90
2022/07/11 05:59:00;;;;;;;9.83;6.60;;;24.00;57.50;;;;;;5000477;28;20643;-88
2022/07/11 06:01:26;;;;;;;7.40;6.70;;;24.30;56.90;;;;;;5017248;28;20215;-89
2022/07/11 06:03:52;;;;;;;8.00;6.80;;;24.50;55.40;;;;;;5016592;28;20179;-91
2022/07/11 06:06:18;;;;;;;10.20;6.97;;;24.40;54.70;;;;;;5016235;28;20797;-91
2022/07/11 06:08:44;;;;;;;8.47;6.20;;;24.10;55.20;;;;;;5015705;28;20767;-89
2022/07/11 06:11:12;;;;;;;6.40;5.80;;;23.70;56.20;;;;;;5016266;28;20193;-91
2022/07/11 06:13:40;;;;;;;7.60;6.90;;;23.20;57.60;;;;;;5000840;28;20736;-90
2022/07/11 06:16:07;;;;;;;9.53;6.40;;;22.80;58.80;;;;;;4999295;28;20442;-88
2022/07/11 06:18:33;;;;;;;7.03;6.37;;;22.30;60.70;;;;;;4997926;28;20549;-90
2022/07/11 06:21:19;;;;;;;10.10;8.03;;;21.90;62.50;;;;;;4999898;28;20419;-90
2022/07/11 06:23:44;;;;;;;11.23;7.77;;;21.80;62.90;;;;;;4999318;28;20418;-90
2022/07/11 06:26:15;;;;;;;12.03;8.17;;;21.80;63.50;;;;;;5004550;28;20444;-89
2022/07/11 06:28:41;;;;;;;8.40;7.40;;;21.70;63.90;;;;;;5018619;28;20650;-90
2022/07/11 06:31:07;;;;;;;11.70;7.53;;;21.40;64.90;;;;;;5017912;28;20800;-90
2022/07/11 06:33:34;;;;;;;12.63;7.77;;;21.50;64.90;;;;;;5019747;28;20425;-89
2022/07/11 06:36:01;;;;;;;9.73;8.30;;;21.40;65.30;;;;;;5034683;28;20421;-90
2022/07/11 06:38:28;;;;;;;8.60;7.70;;;21.00;66.70;;;;;;5026090;28;20527;-90
2022/07/11 06:40:54;;;;;;;10.07;9.07;;;20.80;68.40;;;;;;5017549;28;20449;-90
2022/07/11 06:43:20;;;;;;;10.83;8.77;;;20.50;69.40;;;;;;5023169;28;20930;-90
2022/07/11 06:45:46;;;;;;;11.43;8.03;;;20.40;70.50;;;;;;5021190;28;20182;-89
2022/07/11 06:48:12;;;;;;;9.20;7.00;;;20.40;70.50;;;;;;5020704;28;20174;-91
2022/07/11 06:50:38;;;;;;;9.10;8.20;;;20.60;69.70;;;;;;5015890;28;20426;-91
2022/07/11 06:53:04;;;;;;;11.43;8.10;;;20.60;69.20;;;;;;5018370;28;20655;-91
2022/07/11 06:55:31;;;;;;;9.77;8.87;;;20.60;69.00;;;;;;5003169;28;20432;-91
2022/07/11 06:57:57;;;;;;;8.30;7.40;;;20.70;69.10;;;;;;4995370;28;20243;-89
2022/07/11 07:00:23;;;;;;;8.87;7.83;;;20.70;68.70;;;;;;4978241;28;20473;-90
2022/07/11 07:02:48;;;;;;;11.03;7.40;;;20.70;68.80;;;;;;4994884;28;20419;-90
2022/07/11 07:05:14;;;;;;;8.83;7.40;;;20.80;68.40;;;;;;4997051;28;20418;-91
2022/07/11 07:07:40;;;;;;;10.23;7.17;;;20.70;69.00;;;;;;4979524;28;20214;-89
2022/07/11 07:10:21;;;;;;;7.53;6.50;;;20.80;69.10;;;;;;4995512;28;20938;-89
2022/07/11 07:12:47;;;;;;;7.43;5.90;;;20.90;68.70;;;;;;4996641;28;20182;-90
2022/07/11 07:15:12;;;;;;;8.53;6.17;;;20.90;68.30;;;;;;4996370;28;20414;-90
2022/07/11 07:17:38;;;;;;;7.37;6.57;;;20.90;68.70;;;;;;4993919;28;20211;-91
2022/07/11 07:20:08;;;;;;;5.13;4.63;;;20.90;68.50;;;;;;5009372;28;20229;-90
2022/07/11 07:22:34;;;;;;;4.93;4.00;;;20.80;69.40;;;;;;5014113;28;20472;-91
2022/07/11 07:25:00;;;;;;;4.30;3.90;;;20.90;69.00;;;;;;5015143;28;20449;-91
2022/07/11 07:27:26;;;;;;;9.97;4.23;;;21.00;68.40;;;;;;5014611;28;20441;-90
2022/07/11 07:29:53;;;;;;;5.80;3.70;;;21.30;68.00;;;;;;5014218;28;20425;-90
2022/07/11 07:32:19;;;;;;;6.03;3.80;;;21.50;67.20;;;;;;5015515;28;20479;-90
2022/07/11 07:34:45;;;;;;;5.23;3.60;;;21.50;66.60;;;;;;5016260;28;20827;-89
2022/07/11 07:37:11;;;;;;;4.63;3.97;;;21.60;67.00;;;;;;5013154;28;20209;-89
2022/07/11 07:39:36;;;;;;;6.27;5.13;;;21.60;66.40;;;;;;5014512;28;20673;-91
2022/07/11 07:42:02;;;;;;;10.77;5.57;;;21.60;66.30;;;;;;5015400;28;20418;-91
2022/07/11 07:44:28;;;;;;;6.93;4.17;;;21.50;66.70;;;;;;5015831;28;20237;-90
2022/07/11 07:46:54;;;;;;;6.40;4.57;;;21.40;67.10;;;;;;5017529;28;20510;-89
2022/07/11 07:49:20;;;;;;;7.93;4.87;;;21.40;67.20;;;;;;5018931;28;20265;-89
2022/07/11 07:51:46;;;;;;;8.03;5.67;;;21.40;67.40;;;;;;5006391;28;20464;-87
2022/07/11 07:54:13;;;;;;;6.00;4.23;;;21.40;67.10;;;;;;5018340;28;20194;-89
2022/07/11 07:56:39;;;;;;;5.43;4.10;;;21.50;66.90;;;;;;5016144;28;20456;-89
2022/07/11 07:59:04;;;;;;;6.53;4.70;;;21.60;66.70;;;;;;5015580;28;20976;-88
2022/07/11 08:01:36;;;;;;;6.07;4.30;;;21.60;66.60;;;;;;4999913;28;20269;-89
2022/07/11 08:04:06;;;;;;;6.30;5.27;;;21.50;66.80;;;;;;5021266;28;20167;-88
2022/07/11 08:06:32;;;;;;;7.60;5.67;;;21.70;67.00;;;;;;5029442;28;20441;-89
2022/07/11 08:09:03;;;;;;;7.00;5.70;;;22.00;66.20;;;;;;5014533;28;20434;-89
2022/07/11 08:11:30;;;;;;;8.50;5.70;;;22.10;65.00;;;;;;5013642;28;20425;-89
2022/07/11 08:13:57;;;;;;;7.57;6.77;;;22.30;64.70;;;;;;5015287;28;20944;-87
2022/07/11 08:16:23;;;;;;;7.00;5.77;;;22.50;64.40;;;;;;5013446;28;20980;-89
2022/07/11 08:18:48;;;;;;;7.13;6.23;;;22.60;63.90;;;;;;5012856;28;20457;-89
2022/07/11 08:21:14;;;;;;;8.47;6.10;;;22.70;62.80;;;;;;5013495;28;20469;-89
2022/07/11 08:23:40;;;;;;;6.50;5.50;;;22.80;62.50;;;;;;5014951;28;20564;-89
2022/07/11 08:26:06;;;;;;;6.50;5.90;;;22.70;62.60;;;;;;5013907;28;20197;-89
2022/07/11 08:28:32;;;;;;;6.40;5.80;;;22.70;62.70;;;;;;4994449;28;20438;-90
2022/07/11 08:30:58;;;;;;;10.00;5.67;;;22.80;62.40;;;;;;5023695;28;20183;-90
2022/07/11 08:33:23;;;;;;;9.90;5.67;;;22.80;62.70;;;;;;4997147;28;20418;-90
2022/07/11 08:35:49;;;;;;;9.33;4.60;;;22.80;62.40;;;;;;5004211;28;20248;-90
2022/07/11 08:38:15;;;;;;;5.83;5.17;;;22.90;62.70;;;;;;5013666;28;20190;-88
2022/07/11 08:40:41;;;;;;;9.00;5.97;;;23.20;61.70;;;;;;5014171;28;20183;-88
2022/07/11 08:43:21;;;;;;;7.60;5.27;;;23.40;60.90;;;;;;5013909;28;20175;-88
2022/07/11 08:45:48;;;;;;;8.37;5.27;;;23.10;62.00;;;;;;4994878;28;20557;-89
2022/07/11 08:48:16;;;;;;;9.40;5.43;;;23.30;61.50;;;;;;4994914;28;20508;-89
2022/07/11 08:50:41;;;;;;;6.43;5.80;;;23.60;60.20;;;;;;4995177;28;20436;-89
2022/07/11 08:53:09;;;;;;;6.73;5.27;;;23.80;60.00;;;;;;4994478;28;20787;-90
2022/07/11 08:55:35;;;;;;;6.03;5.43;;;23.30;60.50;;;;;;4994002;28;20206;-90
2022/07/11 08:58:02;;;;;;;8.90;5.40;;;23.10;61.90;;;;;;5008602;28;20472;-90
2022/07/11 09:00:28;;;;;;;4.70;4.30;;;23.40;60.40;;;;;;5013696;28;20500;-90
2022/07/11 09:02:54;;;;;;;7.90;5.13;;;23.80;59.50;;;;;;5013703;28;20429;-90
2022/07/11 09:05:20;;;;;;;9.63;5.87;;;23.90;59.00;;;;;;5013812;28;20213;-88
2022/07/11 09:07:50;;;;;;;6.23;5.63;;;24.00;58.40;;;;;;5012920;28;20441;-89
2022/07/11 09:10:17;;;;;;;5.57;5.00;;;24.00;58.00;;;;;;5013625;28;20468;-91
2022/07/11 09:13:01;;;;;;;7.93;6.00;;;23.80;59.20;;;;;;5015929;28;20436;-90
2022/07/11 09:15:37;;;;;;;9.63;6.40;;;23.60;59.70;;;;;;5016309;28;20978;-89
2022/07/11 09:18:06;;;;;;;6.23;5.63;;;23.30;61.20;;;;;;5015636;28;20445;-90
2022/07/11 09:26:30;;;;;;;12.03;4.87;;;23.80;59.30;;;;;;5017556;28;20425;-91
2022/07/11 09:29:11;;;;;;;5.60;5.10;;;23.90;59.40;;;;;;5014971;28;20564;-91
2022/07/11 09:31:38;;;;;;;6.43;5.80;;;24.20;58.20;;;;;;5018605;28;20414;-90
2022/07/11 09:34:08;;;;;;;7.70;5.60;;;24.30;57.80;;;;;;5020587;28;20460;-90
2022/07/11 09:36:46;;;;;;;9.30;4.63;;;24.40;57.80;;;;;;5017771;28;20441;-90
2022/07/11 09:39:17;;;;;;;7.13;5.70;;;24.40;57.90;;;;;;5018065;28;20485;-89
2022/07/11 09:41:43;;;;;;;6.03;5.43;;;24.40;57.40;;;;;;5021851;28;20421;-89
2022/07/11 09:44:33;;;;;;;7.17;5.00;;;24.30;57.60;;;;;;5035929;28;20410;-88
2022/07/11 09:46:59;;;;;;;5.70;4.83;;;24.30;57.90;;;;;;5017033;28;20965;-91
2022/07/11 09:49:47;;;;;;;7.43;4.87;;;24.00;58.30;;;;;;5018739;28;20449;-89
2022/07/11 09:52:17;;;;;;;7.37;4.17;;;23.80;59.00;;;;;;5017154;28;20405;-90
2022/07/11 09:54:56;;;;;;;8.83;5.43;;;23.60;60.40;;;;;;5017256;28;20408;-91
2022/07/11 09:57:36;;;;;;;7.90;5.03;;;23.80;60.10;;;;;;5000536;28;20461;-90
2022/07/11 10:00:07;;;;;;;5.90;5.30;;;24.00;58.70;;;;;;5016137;28;21137;-90
2022/07/11 10:02:33;;;;;;;5.33;4.60;;;24.10;58.40;;;;;;5005491;28;20415;-90
2022/07/11 10:04:59;;;;;;;7.77;5.50;;;24.20;58.30;;;;;;4997742;28;20469;-89
2022/07/11 10:07:26;;;;;;;5.13;4.63;;;24.30;57.60;;;;;;4996939;28;20965;-89
2022/07/11 10:09:52;;;;;;;7.00;5.00;;;24.60;57.30;;;;;;4997027;28;20427;-89
2022/07/11 10:12:19;;;;;;;4.83;3.90;;;24.70;56.80;;;;;;5012115;28;20457;-88
2022/07/11 10:14:48;;;;;;;5.03;4.20;;;24.80;56.50;;;;;;5017315;28;20632;-89
2022/07/11 10:17:35;;;;;;;5.40;4.33;;;24.80;56.30;;;;;;5017648;28;20473;-90
2022/07/11 10:20:01;;;;;;;4.60;4.20;;;24.80;56.30;;;;;;5023525;28;20459;-89
2022/07/11 10:22:37;;;;;;;6.77;4.10;;;24.80;55.70;;;;;;5016339;28;20436;-90
2022/07/11 10:25:32;;;;;;;5.63;4.53;;;24.70;56.10;;;;;;4998669;28;20185;-90
2022/07/11 10:28:22;;;;;;;5.37;3.90;;;24.50;56.60;;;;;;4996897;28;20438;-90
2022/07/11 10:30:50;;;;;;;5.20;4.57;;;24.40;56.90;;;;;;4996706;28;20403;-90
2022/07/11 10:33:17;;;;;;;5.27;4.23;;;24.40;56.80;;;;;;4997187;28;20458;-90
2022/07/11 10:35:45;;;;;;;3.90;3.60;;;24.20;57.80;;;;;;4997766;28;20494;-90
2022/07/11 10:38:11;;;;;;;7.47;4.30;;;24.30;58.00;;;;;;4997312;28;20493;-91
2022/07/11 10:40:58;;;;;;;4.57;4.17;;;24.00;59.00;;;;;;4997844;28;20470;-90
2022/07/11 10:43:40;;;;;;;6.60;4.93;;;24.00;59.00;;;;;;4998596;28;20436;-90
2022/07/11 10:46:21;;;;;;;5.47;4.97;;;24.10;58.70;;;;;;4998034;28;20484;-91
2022/07/11 10:49:14;;;;;;;4.83;4.43;;;24.10;58.30;;;;;;5011974;28;20556;-91
2022/07/11 10:51:52;;;;;;;5.20;3.80;;;24.00;58.50;;;;;;5015837;28;20413;-90
2022/07/11 10:54:42;;;;;;;5.27;3.47;;;23.70;58.20;;;;;;5016608;28;20402;-90
2022/07/11 10:57:31;;;;;;;10.13;4.40;;;23.20;59.70;;;;;;4997617;28;20508;-90
2022/07/11 11:00:08;;;;;;;6.23;5.27;;;23.60;59.20;;;;;;4997490;28;20454;-88
2022/07/11 11:02:59;;;;;;;8.40;4.77;;;23.70;58.50;;;;;;4995071;28;20410;-89
2022/07/11 11:05:50;;;;;;;8.43;4.80;;;23.80;58.30;;;;;;4997047;28;20468;-90
2022/07/11 11:08:35;;;;;;;4.60;4.20;;;23.90;57.70;;;;;;4996951;28;20407;-89
2022/07/11 11:11:06;;;;;;;5.87;4.77;;;24.20;56.90;;;;;;4999502;28;20418;-91
2022/07/11 11:13:37;;;;;;;10.10;4.30;;;24.30;56.70;;;;;;5017851;28;20645;-90
2022/07/11 11:16:22;;;;;;;4.77;4.37;;;24.50;56.10;;;;;;5018591;28;20531;-90
2022/07/11 11:18:50;;;;;;;3.70;3.40;;;24.70;55.80;;;;;;5017754;28;20944;-90
2022/07/11 11:21:20;;;;;;;3.87;3.57;;;25.00;55.50;;;;;;5016855;28;20418;-90
2022/07/11 11:24:02;;;;;;;5.20;3.50;;;25.30;54.50;;;;;;5015889;28;20406;-90
2022/07/11 11:26:48;;;;;;;4.17;3.20;;;25.50;53.70;;;;;;5016083;28;20440;-90
2022/07/11 11:29:23;;;;;;;5.87;3.83;;;25.60;54.60;;;;;;5017154;28;20416;-90
2022/07/11 11:31:54;;;;;;;6.40;4.30;;;25.90;53.60;;;;;;5016452;28;20405;-89
2022/07/11 11:34:20;;;;;;;4.80;4.40;;;26.00;52.70;;;;;;5015952;28;20410;-88
2022/07/11 11:36:53;;;;;;;5.63;4.43;;;25.90;51.60;;;;;;5003979;28;20449;-90
2022/07/11 11:39:32;;;;;;;5.93;4.30;;;25.90;51.70;;;;;;4994336;28;20190;-87
2022/07/11 11:42:23;;;;;;;4.57;4.00;;;25.80;52.00;;;;;;4994038;28;20918;-89
2022/07/11 11:45:03;;;;;;;5.30;4.80;;;25.80;52.10;;;;;;4998167;28;20467;-88
2022/07/11 11:47:30;;;;;;;5.13;4.63;;;25.90;51.90;;;;;;5002937;28;20457;-88
2022/07/11 11:49:56;;;;;;;5.10;4.57;;;25.90;52.00;;;;;;5007824;28;20429;-89
2022/07/11 11:52:23;;;;;;;4.60;3.90;;;26.00;52.20;;;;;;5000778;28;20569;-88
2022/07/11 11:54:55;;;;;;;5.10;4.70;;;26.10;51.90;;;;;;5003241;28;20475;-89
2022/07/11 11:57:22;;;;;;;5.10;4.13;;;26.10;51.00;;;;;;5016275;28;20547;-88
2022/07/11 11:59:50;;;;;;;7.00;4.43;;;26.00;51.60;;;;;;5016794;28;20613;-89
2022/07/11 12:02:25;;;;;;;4.50;4.10;;;25.90;51.00;;;;;;5016764;28;20409;-88
2022/07/11 12:04:51;;;;;;;3.83;3.13;;;25.60;52.50;;;;;;5017932;28;20409;-88
2022/07/11 12:07:23;;;;;;;4.87;4.10;;;25.60;53.40;;;;;;5017454;28;20519;-89
2022/07/11 12:09:55;;;;;;;4.10;3.63;;;25.90;51.70;;;;;;5018471;28;20173;-88
2022/07/11 12:12:45;;;;;;;3.50;3.20;;;26.10;51.40;;;;;;5026792;28;20460;-87
2022/07/11 12:15:34;;;;;;;3.77;3.10;;;25.90;51.30;;;;;;5019065;28;20524;-89
2022/07/11 12:18:03;;;;;;;3.80;3.40;;;25.80;51.50;;;;;;5016604;28;20842;-88
2022/07/11 12:20:41;;;;;;;4.33;2.87;;;25.90;51.90;;;;;;5013042;28;20492;-88
2022/07/11 12:23:12;;;;;;;5.33;3.50;;;26.10;51.90;;;;;;5012644;28;20418;-89
2022/07/11 12:25:38;;;;;;;5.10;3.63;;;26.40;50.30;;;;;;4997474;28;20457;-89
2022/07/11 12:28:07;;;;;;;3.77;3.20;;;26.40;50.60;;;;;;4997415;28;20481;-88
2022/07/11 12:30:33;;;;;;;5.40;3.17;;;26.30;50.80;;;;;;5006564;28;20536;-88
2022/07/11 12:33:10;;;;;;;5.43;4.10;;;26.40;50.30;;;;;;5014320;28;20473;-88
2022/07/11 12:35:53;;;;;;;4.80;3.87;;;26.40;49.50;;;;;;5014484;28;20429;-89
2022/07/11 12:38:22;;;;;;;7.63;3.70;;;26.30;49.40;;;;;;5008599;28;20430;-89
2022/07/11 12:41:02;;;;;;;3.20;2.83;;;26.00;50.80;;;;;;4995291;28;20438;-88
2022/07/11 12:46:29;;;;;;;6.33;4.57;;;26.00;50.60;;;;;;5017757;28;20451;-87
2022/07/11 12:48:55;;;;;;;3.80;3.50;;;25.90;50.40;;;;;;5019795;28;20423;-88
2022/07/11 12:51:35;;;;;;;3.80;3.10;;;25.80;50.80;;;;;;5020086;28;20432;-87
2022/07/11 12:54:05;;;;;;;4.27;3.50;;;25.90;50.70;;;;;;5019929;28;20177;-88
2022/07/11 12:56:32;;;;;;;3.90;3.60;;;26.10;50.30;;;;;;5019727;28;20449;-89
2022/07/11 12:58:59;;;;;;;3.00;2.70;;;26.00;50.50;;;;;;5005723;28;20458;-89